Birds Landing, CA (94512)

3:51 AM PST on December 19, 2014 (GMT -0800)
Pittsburg, CA (Marina) | Change Station
CLOSE
Current Station
Personal Weather Station
Location: Pittsburg, CA
Elevation: 10 ft
Nearby Weather Stations

Elev 10 ft 38.03 °N, 121.88 °W | Updated 12 minutes ago

Mostly Cloudy
Mostly Cloudy
53.7 °F
Feels Like 53.7 °F
N
7.0
Wind Variable Wind from ESE
Gusts 8.0 mph

Today
High -- | Low -- °F
--% Chance of Precip.
Yesterday
High -- | Low -- °F
Precip. -- in
7:19 AM 4:50 PM
Waning Crescent, 8% visible
Pressure 30.13 in
Visibility 10.0 miles
Clouds Few 3200 ft
Dew Point 50 °F
Humidity 88%
Rainfall 0.00 in
Snow Depth Not available.
UV 0.0 out of 12
Pollen 1.80 out of 12
Air Quality Not available.
Flu Activity Not available.
SPECI KSUU 191138Z AUTO 16003KT 10SM -DZ FEW032 11/09 A3013 RMK AO2 DZB38 $

More Conditions Fewer Conditions

Pressure 30.13 in
Visibility 10.0 miles
Clouds Few 3200 ft
Dew Point 50 °F
Humidity 88%
Rainfall 0.00 in
Snow Depth Not available.
UV 0.0 out of 12
Pollen 1.80 out of 12
Air Quality Not available.
Flu Activity Not available.
SPECI KSUU 191138Z AUTO 16003KT 10SM -DZ FEW032 11/09 A3013 RMK AO2 DZB38 $

More Conditions Fewer Conditions

10-Day Weather Forecast

Almanac

Astronomy

Dec. 19, 2014 Rise Set
Actual Time
Civil Twilight
Nautical Twilight
Astronomical Twilight
Moon
Length of Visible Light
Length of Day
Tomorrow will be .
, % of the Moon is Illuminated

Today's Extremes

State Highs State Lows

Community

WunderPhotos

Upload Photos

1,778,966 photos uploaded!

WunderBlogs® & News

Nearby

Air Quality

  Air Quality AQ Index Pollutant
Not available.

Snow Depth

Station Depth Elevation

Earthquake Activity

City Distance Mag. Time & Date
Minimum magnitude displayed is 2.5.

Coastal Water Temperatures

Place Temperature

Nearby Weather Stations